sensor_id;sensor_type;location;lat;lon;timestamp;P1;durP1;ratioP1;P2;durP2;ratioP2
17201;SDS011;8717;53.588;10.176;2023-05-29T00:00:22;7.87;;;2.37;;
17201;SDS011;8717;53.588;10.176;2023-05-29T00:02:51;9.47;;;2.17;;
17201;SDS011;8717;53.588;10.176;2023-05-29T00:05:18;8.97;;;2.37;;
17201;SDS011;8717;53.588;10.176;2023-05-29T00:07:45;10.40;;;2.23;;
17201;SDS011;8717;53.588;10.176;2023-05-29T00:10:14;8.10;;;2.57;;
17201;SDS011;8717;53.588;10.176;2023-05-29T00:12:41;10.83;;;2.53;;
17201;SDS011;8717;53.588;10.176;2023-05-29T00:15:08;9.93;;;2.50;;
17201;SDS011;8717;53.588;10.176;2023-05-29T00:17:37;10.33;;;2.70;;
17201;SDS011;8717;53.588;10.176;2023-05-29T00:20:06;12.43;;;2.97;;
17201;SDS011;8717;53.588;10.176;2023-05-29T00:22:35;7.77;;;2.40;;
17201;SDS011;8717;53.588;10.176;2023-05-29T00:25:03;7.63;;;2.33;;
17201;SDS011;8717;53.588;10.176;2023-05-29T00:27:30;7.03;;;2.37;;
17201;SDS011;8717;53.588;10.176;2023-05-29T00:29:57;9.53;;;2.40;;
17201;SDS011;8717;53.588;10.176;2023-05-29T00:32:24;9.90;;;2.77;;
17201;SDS011;8717;53.588;10.176;2023-05-29T00:34:52;7.60;;;2.33;;
17201;SDS011;8717;53.588;10.176;2023-05-29T00:37:20;8.87;;;2.70;;
17201;SDS011;8717;53.588;10.176;2023-05-29T00:39:47;12.57;;;2.93;;
17201;SDS011;8717;53.588;10.176;2023-05-29T00:42:14;7.53;;;2.27;;
17201;SDS011;8717;53.588;10.176;2023-05-29T00:44:41;9.63;;;2.83;;
17201;SDS011;8717;53.588;10.176;2023-05-29T00:47:07;7.93;;;2.70;;
17201;SDS011;8717;53.588;10.176;2023-05-29T00:49:35;12.20;;;2.50;;
17201;SDS011;8717;53.588;10.176;2023-05-29T00:52:03;10.43;;;2.87;;
17201;SDS011;8717;53.588;10.176;2023-05-29T00:54:34;10.87;;;2.90;;
17201;SDS011;8717;53.588;10.176;2023-05-29T00:57:01;15.37;;;3.10;;
17201;SDS011;8717;53.588;10.176;2023-05-29T00:59:31;10.83;;;3.27;;
17201;SDS011;8717;53.588;10.176;2023-05-29T01:01:59;9.87;;;2.90;;
17201;SDS011;8717;53.588;10.176;2023-05-29T01:04:28;10.47;;;2.77;;
17201;SDS011;8717;53.588;10.176;2023-05-29T01:06:58;10.57;;;3.13;;
17201;SDS011;8717;53.588;10.176;2023-05-29T01:09:27;12.13;;;3.10;;
17201;SDS011;8717;53.588;10.176;2023-05-29T01:11:59;10.13;;;2.93;;
17201;SDS011;8717;53.588;10.176;2023-05-29T01:14:37;12.67;;;3.03;;
17201;SDS011;8717;53.588;10.176;2023-05-29T01:17:15;16.13;;;3.10;;
17201;SDS011;8717;53.588;10.176;2023-05-29T01:19:53;14.33;;;2.67;;
17201;SDS011;8717;53.588;10.176;2023-05-29T01:22:35;8.93;;;2.60;;
17201;SDS011;8717;53.588;10.176;2023-05-29T01:25:11;9.50;;;3.37;;
17201;SDS011;8717;53.588;10.176;2023-05-29T01:27:44;12.17;;;3.17;;
17201;SDS011;8717;53.588;10.176;2023-05-29T01:30:14;10.93;;;2.83;;
17201;SDS011;8717;53.588;10.176;2023-05-29T01:32:41;10.00;;;2.97;;
17201;SDS011;8717;53.588;10.176;2023-05-29T01:35:13;11.40;;;3.20;;
17201;SDS011;8717;53.588;10.176;2023-05-29T01:37:40;11.23;;;2.80;;
17201;SDS011;8717;53.588;10.176;2023-05-29T01:40:07;8.93;;;2.93;;
17201;SDS011;8717;53.588;10.176;2023-05-29T01:42:34;12.97;;;2.53;;
17201;SDS011;8717;53.588;10.176;2023-05-29T01:45:03;8.83;;;2.67;;
17201;SDS011;8717;53.588;10.176;2023-05-29T01:47:31;9.20;;;2.87;;
17201;SDS011;8717;53.588;10.176;2023-05-29T01:49:59;10.47;;;2.83;;
17201;SDS011;8717;53.588;10.176;2023-05-29T01:52:27;7.97;;;2.77;;
17201;SDS011;8717;53.588;10.176;2023-05-29T01:54:54;11.43;;;3.00;;
17201;SDS011;8717;53.588;10.176;2023-05-29T01:57:21;9.50;;;2.60;;
17201;SDS011;8717;53.588;10.176;2023-05-29T01:59:48;13.17;;;3.10;;
17201;SDS011;8717;53.588;10.176;2023-05-29T02:02:17;11.07;;;2.73;;
17201;SDS011;8717;53.588;10.176;2023-05-29T02:04:44;10.50;;;2.43;;
17201;SDS011;8717;53.588;10.176;2023-05-29T02:07:11;14.00;;;2.93;;
17201;SDS011;8717;53.588;10.176;2023-05-29T02:09:38;14.47;;;2.87;;
17201;SDS011;8717;53.588;10.176;2023-05-29T02:12:05;8.83;;;2.47;;
17201;SDS011;8717;53.588;10.176;2023-05-29T02:14:33;12.10;;;2.53;;
17201;SDS011;8717;53.588;10.176;2023-05-29T02:16:59;8.93;;;2.73;;
17201;SDS011;8717;53.588;10.176;2023-05-29T02:19:28;11.80;;;2.70;;
17201;SDS011;8717;53.588;10.176;2023-05-29T02:21:54;10.30;;;3.00;;
17201;SDS011;8717;53.588;10.176;2023-05-29T02:24:21;12.53;;;3.50;;
17201;SDS011;8717;53.588;10.176;2023-05-29T02:26:48;8.07;;;2.50;;
17201;SDS011;8717;53.588;10.176;2023-05-29T02:29:15;10.30;;;3.37;;
17201;SDS011;8717;53.588;10.176;2023-05-29T02:31:42;10.73;;;2.53;;
17201;SDS011;8717;53.588;10.176;2023-05-29T02:34:09;11.87;;;2.60;;
17201;SDS011;8717;53.588;10.176;2023-05-29T02:36:37;9.87;;;2.57;;
17201;SDS011;8717;53.588;10.176;2023-05-29T02:39:05;11.50;;;2.77;;
17201;SDS011;8717;53.588;10.176;2023-05-29T02:41:32;14.73;;;3.00;;
17201;SDS011;8717;53.588;10.176;2023-05-29T02:43:59;16.10;;;3.07;;
17201;SDS011;8717;53.588;10.176;2023-05-29T02:46:26;9.93;;;2.63;;
17201;SDS011;8717;53.588;10.176;2023-05-29T02:48:53;12.03;;;2.73;;
17201;SDS011;8717;53.588;10.176;2023-05-29T02:51:20;12.57;;;3.10;;
17201;SDS011;8717;53.588;10.176;2023-05-29T02:53:48;8.50;;;3.17;;
17201;SDS011;8717;53.588;10.176;2023-05-29T02:56:14;12.77;;;3.00;;
17201;SDS011;8717;53.588;10.176;2023-05-29T02:58:42;11.00;;;2.40;;
17201;SDS011;8717;53.588;10.176;2023-05-29T03:01:08;13.17;;;2.90;;
17201;SDS011;8717;53.588;10.176;2023-05-29T03:03:35;10.63;;;2.93;;
17201;SDS011;8717;53.588;10.176;2023-05-29T03:06:02;9.90;;;3.03;;
17201;SDS011;8717;53.588;10.176;2023-05-29T03:08:29;11.90;;;3.23;;
17201;SDS011;8717;53.588;10.176;2023-05-29T03:10:57;7.27;;;2.27;;
17201;SDS011;8717;53.588;10.176;2023-05-29T03:13:24;12.07;;;3.50;;
17201;SDS011;8717;53.588;10.176;2023-05-29T03:15:59;13.77;;;2.57;;
17201;SDS011;8717;53.588;10.176;2023-05-29T03:18:25;16.73;;;3.50;;
17201;SDS011;8717;53.588;10.176;2023-05-29T03:20:53;14.83;;;3.17;;
17201;SDS011;8717;53.588;10.176;2023-05-29T03:23:20;10.07;;;2.93;;
17201;SDS011;8717;53.588;10.176;2023-05-29T03:25:46;10.70;;;2.93;;
17201;SDS011;8717;53.588;10.176;2023-05-29T03:28:15;14.50;;;3.07;;
17201;SDS011;8717;53.588;10.176;2023-05-29T03:30:42;14.57;;;2.93;;
17201;SDS011;8717;53.588;10.176;2023-05-29T03:33:12;14.20;;;3.63;;
17201;SDS011;8717;53.588;10.176;2023-05-29T03:35:56;11.57;;;2.70;;
17201;SDS011;8717;53.588;10.176;2023-05-29T03:38:24;11.73;;;3.23;;
17201;SDS011;8717;53.588;10.176;2023-05-29T03:40:54;10.10;;;2.80;;
17201;SDS011;8717;53.588;10.176;2023-05-29T03:43:23;14.50;;;3.20;;
17201;SDS011;8717;53.588;10.176;2023-05-29T03:45:50;10.67;;;2.70;;
17201;SDS011;8717;53.588;10.176;2023-05-29T03:48:17;12.20;;;2.90;;
17201;SDS011;8717;53.588;10.176;2023-05-29T03:50:46;11.77;;;2.80;;
17201;SDS011;8717;53.588;10.176;2023-05-29T03:53:17;15.30;;;3.10;;
17201;SDS011;8717;53.588;10.176;2023-05-29T03:55:44;10.70;;;3.37;;
17201;SDS011;8717;53.588;10.176;2023-05-29T03:58:11;12.43;;;3.10;;
17201;SDS011;8717;53.588;10.176;2023-05-29T04:00:40;11.73;;;2.87;;
17201;SDS011;8717;53.588;10.176;2023-05-29T04:03:07;11.43;;;2.90;;
17201;SDS011;8717;53.588;10.176;2023-05-29T04:05:34;12.70;;;3.30;;
17201;SDS011;8717;53.588;10.176;2023-05-29T04:08:01;9.97;;;2.80;;
17201;SDS011;8717;53.588;10.176;2023-05-29T04:10:29;13.17;;;3.47;;
17201;SDS011;8717;53.588;10.176;2023-05-29T04:12:59;9.97;;;2.70;;
17201;SDS011;8717;53.588;10.176;2023-05-29T04:15:26;12.80;;;3.23;;
17201;SDS011;8717;53.588;10.176;2023-05-29T04:17:55;10.63;;;2.77;;
17201;SDS011;8717;53.588;10.176;2023-05-29T04:20:21;14.97;;;3.77;;
17201;SDS011;8717;53.588;10.176;2023-05-29T04:22:49;9.73;;;3.03;;
17201;SDS011;8717;53.588;10.176;2023-05-29T04:25:15;13.47;;;3.03;;
17201;SDS011;8717;53.588;10.176;2023-05-29T04:27:43;12.97;;;3.40;;
17201;SDS011;8717;53.588;10.176;2023-05-29T04:30:14;13.00;;;3.23;;
17201;SDS011;8717;53.588;10.176;2023-05-29T04:32:45;15.23;;;3.30;;
17201;SDS011;8717;53.588;10.176;2023-05-29T04:35:14;14.00;;;3.53;;
17201;SDS011;8717;53.588;10.176;2023-05-29T04:37:50;9.23;;;2.93;;
17201;SDS011;8717;53.588;10.176;2023-05-29T04:40:18;12.87;;;3.50;;
17201;SDS011;8717;53.588;10.176;2023-05-29T04:42:45;13.70;;;3.70;;
17201;SDS011;8717;53.588;10.176;2023-05-29T04:45:13;19.93;;;3.43;;
17201;SDS011;8717;53.588;10.176;2023-05-29T04:47:41;16.00;;;3.33;;
17201;SDS011;8717;53.588;10.176;2023-05-29T04:50:10;19.00;;;4.00;;
17201;SDS011;8717;53.588;10.176;2023-05-29T04:52:40;11.90;;;3.20;;
17201;SDS011;8717;53.588;10.176;2023-05-29T04:55:08;14.33;;;3.30;;
17201;SDS011;8717;53.588;10.176;2023-05-29T04:57:36;16.63;;;3.90;;
17201;SDS011;8717;53.588;10.176;2023-05-29T05:00:04;16.80;;;3.23;;
17201;SDS011;8717;53.588;10.176;2023-05-29T05:02:35;19.57;;;3.37;;
17201;SDS011;8717;53.588;10.176;2023-05-29T05:05:02;13.47;;;3.10;;
17201;SDS011;8717;53.588;10.176;2023-05-29T05:07:30;12.07;;;3.97;;
17201;SDS011;8717;53.588;10.176;2023-05-29T05:09:58;19.37;;;3.40;;
17201;SDS011;8717;53.588;10.176;2023-05-29T05:12:26;16.13;;;3.43;;
17201;SDS011;8717;53.588;10.176;2023-05-29T05:14:53;14.17;;;3.37;;
17201;SDS011;8717;53.588;10.176;2023-05-29T05:17:20;11.53;;;3.10;;
17201;SDS011;8717;53.588;10.176;2023-05-29T05:19:47;14.97;;;3.57;;
17201;SDS011;8717;53.588;10.176;2023-05-29T05:22:15;12.67;;;3.70;;
17201;SDS011;8717;53.588;10.176;2023-05-29T05:24:42;14.23;;;3.00;;
17201;SDS011;8717;53.588;10.176;2023-05-29T05:27:10;18.13;;;3.90;;
17201;SDS011;8717;53.588;10.176;2023-05-29T05:29:38;22.87;;;4.73;;
17201;SDS011;8717;53.588;10.176;2023-05-29T05:32:05;10.53;;;2.87;;
17201;SDS011;8717;53.588;10.176;2023-05-29T05:34:33;18.97;;;3.73;;
17201;SDS011;8717;53.588;10.176;2023-05-29T05:37:00;13.97;;;3.57;;
17201;SDS011;8717;53.588;10.176;2023-05-29T05:39:28;14.33;;;3.43;;
17201;SDS011;8717;53.588;10.176;2023-05-29T05:41:55;13.63;;;3.43;;
17201;SDS011;8717;53.588;10.176;2023-05-29T05:44:40;14.03;;;3.30;;
17201;SDS011;8717;53.588;10.176;2023-05-29T05:47:10;13.73;;;3.17;;
17201;SDS011;8717;53.588;10.176;2023-05-29T05:49:37;12.00;;;3.27;;
17201;SDS011;8717;53.588;10.176;2023-05-29T05:52:04;17.77;;;4.20;;
17201;SDS011;8717;53.588;10.176;2023-05-29T05:54:32;10.83;;;3.00;;
17201;SDS011;8717;53.588;10.176;2023-05-29T05:56:59;18.40;;;4.23;;
17201;SDS011;8717;53.588;10.176;2023-05-29T05:59:28;15.60;;;3.50;;
17201;SDS011;8717;53.588;10.176;2023-05-29T06:01:57;14.17;;;3.87;;
17201;SDS011;8717;53.588;10.176;2023-05-29T06:04:24;14.37;;;3.50;;
17201;SDS011;8717;53.588;10.176;2023-05-29T06:06:51;15.43;;;3.90;;
17201;SDS011;8717;53.588;10.176;2023-05-29T06:09:18;15.73;;;3.27;;
17201;SDS011;8717;53.588;10.176;2023-05-29T06:11:45;12.03;;;3.30;;
17201;SDS011;8717;53.588;10.176;2023-05-29T06:14:13;13.87;;;3.40;;
17201;SDS011;8717;53.588;10.176;2023-05-29T06:16:41;12.97;;;3.20;;
17201;SDS011;8717;53.588;10.176;2023-05-29T06:19:10;16.47;;;4.17;;
17201;SDS011;8717;53.588;10.176;2023-05-29T06:21:59;15.03;;;3.60;;
17201;SDS011;8717;53.588;10.176;2023-05-29T06:24:29;14.13;;;3.50;;
17201;SDS011;8717;53.588;10.176;2023-05-29T06:26:56;16.77;;;4.17;;
17201;SDS011;8717;53.588;10.176;2023-05-29T06:29:22;14.17;;;3.47;;
17201;SDS011;8717;53.588;10.176;2023-05-29T06:31:49;15.30;;;3.60;;
17201;SDS011;8717;53.588;10.176;2023-05-29T06:34:19;13.37;;;3.70;;
17201;SDS011;8717;53.588;10.176;2023-05-29T06:36:46;12.70;;;3.20;;
17201;SDS011;8717;53.588;10.176;2023-05-29T06:39:13;10.90;;;3.47;;
17201;SDS011;8717;53.588;10.176;2023-05-29T06:41:40;16.13;;;3.47;;
17201;SDS011;8717;53.588;10.176;2023-05-29T06:44:07;11.07;;;3.40;;
17201;SDS011;8717;53.588;10.176;2023-05-29T06:46:34;10.03;;;3.37;;
17201;SDS011;8717;53.588;10.176;2023-05-29T06:49:01;14.13;;;3.07;;
17201;SDS011;8717;53.588;10.176;2023-05-29T06:51:29;18.17;;;3.90;;
17201;SDS011;8717;53.588;10.176;2023-05-29T06:54:21;13.03;;;3.37;;
17201;SDS011;8717;53.588;10.176;2023-05-29T06:56:48;13.67;;;3.43;;
17201;SDS011;8717;53.588;10.176;2023-05-29T06:59:15;14.57;;;3.63;;
17201;SDS011;8717;53.588;10.176;2023-05-29T07:01:42;12.93;;;3.30;;
17201;SDS011;8717;53.588;10.176;2023-05-29T07:04:09;14.10;;;3.63;;
17201;SDS011;8717;53.588;10.176;2023-05-29T07:06:38;13.57;;;3.53;;
17201;SDS011;8717;53.588;10.176;2023-05-29T07:09:05;15.77;;;3.20;;
17201;SDS011;8717;53.588;10.176;2023-05-29T07:11:32;10.57;;;2.83;;
17201;SDS011;8717;53.588;10.176;2023-05-29T07:13:59;10.20;;;2.90;;
17201;SDS011;8717;53.588;10.176;2023-05-29T07:16:25;11.57;;;3.10;;
17201;SDS011;8717;53.588;10.176;2023-05-29T07:18:58;8.77;;;3.00;;
17201;SDS011;8717;53.588;10.176;2023-05-29T07:21:28;11.03;;;3.73;;
17201;SDS011;8717;53.588;10.176;2023-05-29T07:23:57;12.13;;;3.75;;
17201;SDS011;8717;53.588;10.176;2023-05-29T07:26:25;11.52;;;3.35;;
17201;SDS011;8717;53.588;10.176;2023-05-29T07:28:51;9.70;;;3.50;;
17201;SDS011;8717;53.588;10.176;2023-05-29T07:31:18;12.23;;;3.45;;
17201;SDS011;8717;53.588;10.176;2023-05-29T07:33:47;9.13;;;3.45;;
17201;SDS011;8717;53.588;10.176;2023-05-29T07:36:14;11.05;;;3.70;;
17201;SDS011;8717;53.588;10.176;2023-05-29T07:38:41;12.10;;;3.50;;
17201;SDS011;8717;53.588;10.176;2023-05-29T07:41:10;9.68;;;3.63;;
17201;SDS011;8717;53.588;10.176;2023-05-29T07:43:38;10.32;;;3.63;;
17201;SDS011;8717;53.588;10.176;2023-05-29T07:46:07;10.80;;;3.55;;
17201;SDS011;8717;53.588;10.176;2023-05-29T07:48:37;11.25;;;3.60;;
17201;SDS011;8717;53.588;10.176;2023-05-29T07:51:04;10.40;;;3.40;;
17201;SDS011;8717;53.588;10.176;2023-05-29T07:53:36;10.13;;;3.25;;
17201;SDS011;8717;53.588;10.176;2023-05-29T07:56:02;9.10;;;3.15;;
17201;SDS011;8717;53.588;10.176;2023-05-29T07:58:31;10.45;;;3.33;;
17201;SDS011;8717;53.588;10.176;2023-05-29T08:00:58;11.77;;;2.95;;
17201;SDS011;8717;53.588;10.176;2023-05-29T08:03:26;8.65;;;3.28;;
17201;SDS011;8717;53.588;10.176;2023-05-29T08:06:25;7.53;;;3.13;;
17201;SDS011;8717;53.588;10.176;2023-05-29T08:08:51;11.73;;;3.22;;
17201;SDS011;8717;53.588;10.176;2023-05-29T08:11:21;8.73;;;2.97;;
17201;SDS011;8717;53.588;10.176;2023-05-29T08:13:49;9.13;;;3.00;;
17201;SDS011;8717;53.588;10.176;2023-05-29T08:16:16;9.25;;;3.13;;
17201;SDS011;8717;53.588;10.176;2023-05-29T08:18:43;10.73;;;3.92;;
17201;SDS011;8717;53.588;10.176;2023-05-29T08:21:10;11.75;;;3.20;;
17201;SDS011;8717;53.588;10.176;2023-05-29T08:23:36;9.88;;;3.40;;
17201;SDS011;8717;53.588;10.176;2023-05-29T08:26:03;9.05;;;3.13;;
17201;SDS011;8717;53.588;10.176;2023-05-29T08:28:30;10.00;;;3.17;;
17201;SDS011;8717;53.588;10.176;2023-05-29T08:30:58;8.60;;;2.80;;
17201;SDS011;8717;53.588;10.176;2023-05-29T08:33:25;8.25;;;3.22;;
17201;SDS011;8717;53.588;10.176;2023-05-29T08:35:52;7.95;;;2.67;;
17201;SDS011;8717;53.588;10.176;2023-05-29T08:38:18;9.50;;;3.00;;
17201;SDS011;8717;53.588;10.176;2023-05-29T08:40:46;9.27;;;3.17;;
17201;SDS011;8717;53.588;10.176;2023-05-29T08:43:14;11.23;;;3.60;;
17201;SDS011;8717;53.588;10.176;2023-05-29T08:45:44;8.48;;;2.97;;
17201;SDS011;8717;53.588;10.176;2023-05-29T08:48:12;11.68;;;3.60;;
17201;SDS011;8717;53.588;10.176;2023-05-29T08:50:41;11.93;;;3.13;;
17201;SDS011;8717;53.588;10.176;2023-05-29T08:53:12;10.07;;;3.25;;
17201;SDS011;8717;53.588;10.176;2023-05-29T08:55:39;9.93;;;3.85;;
17201;SDS011;8717;53.588;10.176;2023-05-29T08:58:06;6.75;;;3.17;;
17201;SDS011;8717;53.588;10.176;2023-05-29T09:00:33;9.77;;;3.15;;
17201;SDS011;8717;53.588;10.176;2023-05-29T09:03:00;10.48;;;3.40;;
17201;SDS011;8717;53.588;10.176;2023-05-29T09:05:29;10.43;;;2.85;;
17201;SDS011;8717;53.588;10.176;2023-05-29T09:07:56;9.73;;;2.95;;
17201;SDS011;8717;53.588;10.176;2023-05-29T09:10:23;9.02;;;3.30;;
17201;SDS011;8717;53.588;10.176;2023-05-29T09:12:50;8.02;;;3.58;;
17201;SDS011;8717;53.588;10.176;2023-05-29T09:15:17;8.50;;;2.95;;
17201;SDS011;8717;53.588;10.176;2023-05-29T09:17:49;9.15;;;2.45;;
17201;SDS011;8717;53.588;10.176;2023-05-29T09:20:18;8.95;;;2.50;;
17201;SDS011;8717;53.588;10.176;2023-05-29T09:22:53;7.90;;;2.60;;
17201;SDS011;8717;53.588;10.176;2023-05-29T09:25:22;6.63;;;2.67;;
17201;SDS011;8717;53.588;10.176;2023-05-29T09:27:54;9.10;;;3.05;;
17201;SDS011;8717;53.588;10.176;2023-05-29T09:30:34;10.63;;;3.05;;
17201;SDS011;8717;53.588;10.176;2023-05-29T09:33:03;6.07;;;2.80;;
17201;SDS011;8717;53.588;10.176;2023-05-29T09:35:34;7.30;;;2.95;;
17201;SDS011;8717;53.588;10.176;2023-05-29T09:38:03;9.07;;;2.63;;
17201;SDS011;8717;53.588;10.176;2023-05-29T09:40:31;8.25;;;2.70;;
17201;SDS011;8717;53.588;10.176;2023-05-29T09:43:03;8.05;;;2.35;;
17201;SDS011;8717;53.588;10.176;2023-05-29T09:45:32;9.70;;;2.60;;
17201;SDS011;8717;53.588;10.176;2023-05-29T09:48:02;10.95;;;2.80;;
17201;SDS011;8717;53.588;10.176;2023-05-29T09:50:28;8.20;;;3.10;;
17201;SDS011;8717;53.588;10.176;2023-05-29T09:52:56;9.50;;;2.88;;
17201;SDS011;8717;53.588;10.176;2023-05-29T09:55:25;10.35;;;2.88;;
17201;SDS011;8717;53.588;10.176;2023-05-29T09:57:54;10.82;;;2.88;;
17201;SDS011;8717;53.588;10.176;2023-05-29T10:00:21;6.07;;;2.22;;
17201;SDS011;8717;53.588;10.176;2023-05-29T10:02:48;7.75;;;2.97;;
17201;SDS011;8717;53.588;10.176;2023-05-29T10:05:15;7.00;;;2.15;;
17201;SDS011;8717;53.588;10.176;2023-05-29T10:07:43;8.50;;;2.67;;
17201;SDS011;8717;53.588;10.176;2023-05-29T10:10:12;8.73;;;2.72;;
17201;SDS011;8717;53.588;10.176;2023-05-29T10:12:42;6.45;;;2.80;;
17201;SDS011;8717;53.588;10.176;2023-05-29T10:15:12;6.07;;;2.30;;
17201;SDS011;8717;53.588;10.176;2023-05-29T10:17:41;7.25;;;2.65;;
17201;SDS011;8717;53.588;10.176;2023-05-29T10:20:13;10.90;;;2.67;;
17201;SDS011;8717;53.588;10.176;2023-05-29T10:22:43;7.28;;;2.70;;
17201;SDS011;8717;53.588;10.176;2023-05-29T10:25:14;7.88;;;2.47;;
17201;SDS011;8717;53.588;10.176;2023-05-29T10:27:45;4.90;;;2.25;;
17201;SDS011;8717;53.588;10.176;2023-05-29T10:30:14;7.00;;;2.70;;
17201;SDS011;8717;53.588;10.176;2023-05-29T10:32:58;8.57;;;3.25;;
17201;SDS011;8717;53.588;10.176;2023-05-29T10:35:36;6.50;;;2.20;;
17201;SDS011;8717;53.588;10.176;2023-05-29T10:38:10;8.27;;;2.90;;
17201;SDS011;8717;53.588;10.176;2023-05-29T10:40:40;7.82;;;2.42;;
17201;SDS011;8717;53.588;10.176;2023-05-29T10:43:08;8.70;;;2.60;;
17201;SDS011;8717;53.588;10.176;2023-05-29T10:45:48;6.45;;;2.30;;
17201;SDS011;8717;53.588;10.176;2023-05-29T10:51:05;5.82;;;2.47;;
17201;SDS011;8717;53.588;10.176;2023-05-29T10:53:33;4.85;;;2.40;;
17201;SDS011;8717;53.588;10.176;2023-05-29T10:56:05;6.43;;;2.53;;
17201;SDS011;8717;53.588;10.176;2023-05-29T10:58:37;9.20;;;2.85;;
17201;SDS011;8717;53.588;10.176;2023-05-29T11:01:05;8.23;;;2.53;;
17201;SDS011;8717;53.588;10.176;2023-05-29T11:03:34;8.10;;;2.97;;
17201;SDS011;8717;53.588;10.176;2023-05-29T11:06:02;8.40;;;2.70;;
17201;SDS011;8717;53.588;10.176;2023-05-29T11:08:33;5.10;;;2.55;;
17201;SDS011;8717;53.588;10.176;2023-05-29T11:11:01;7.95;;;2.83;;
17201;SDS011;8717;53.588;10.176;2023-05-29T11:13:32;6.68;;;2.72;;
17201;SDS011;8717;53.588;10.176;2023-05-29T11:16:12;7.35;;;2.90;;
17201;SDS011;8717;53.588;10.176;2023-05-29T11:18:43;7.70;;;2.65;;
17201;SDS011;8717;53.588;10.176;2023-05-29T11:21:27;6.95;;;2.50;;
17201;SDS011;8717;53.588;10.176;2023-05-29T11:23:59;7.03;;;2.50;;
17201;SDS011;8717;53.588;10.176;2023-05-29T11:26:29;7.40;;;2.80;;
17201;SDS011;8717;53.588;10.176;2023-05-29T11:28:59;6.05;;;2.55;;
17201;SDS011;8717;53.588;10.176;2023-05-29T11:31:28;8.45;;;2.53;;
17201;SDS011;8717;53.588;10.176;2023-05-29T11:33:58;7.22;;;2.40;;
17201;SDS011;8717;53.588;10.176;2023-05-29T11:36:27;8.18;;;2.80;;
17201;SDS011;8717;53.588;10.176;2023-05-29T11:38:55;5.82;;;2.55;;
17201;SDS011;8717;53.588;10.176;2023-05-29T11:41:22;7.80;;;2.60;;
17201;SDS011;8717;53.588;10.176;2023-05-29T11:43:58;6.22;;;2.35;;
17201;SDS011;8717;53.588;10.176;2023-05-29T11:46:27;6.85;;;2.33;;
17201;SDS011;8717;53.588;10.176;2023-05-29T11:48:57;7.28;;;2.33;;
17201;SDS011;8717;53.588;10.176;2023-05-29T11:51:24;8.02;;;2.65;;
17201;SDS011;8717;53.588;10.176;2023-05-29T11:53:51;7.18;;;2.20;;
17201;SDS011;8717;53.588;10.176;2023-05-29T11:56:22;5.88;;;2.65;;
17201;SDS011;8717;53.588;10.176;2023-05-29T11:58:50;5.88;;;2.75;;
17201;SDS011;8717;53.588;10.176;2023-05-29T12:01:20;7.82;;;2.80;;
17201;SDS011;8717;53.588;10.176;2023-05-29T12:03:49;6.22;;;2.67;;
17201;SDS011;8717;53.588;10.176;2023-05-29T12:06:16;8.35;;;2.67;;
17201;SDS011;8717;53.588;10.176;2023-05-29T12:08:57;7.18;;;2.45;;
17201;SDS011;8717;53.588;10.176;2023-05-29T12:11:24;6.75;;;2.42;;
17201;SDS011;8717;53.588;10.176;2023-05-29T12:13:54;6.22;;;2.40;;
17201;SDS011;8717;53.588;10.176;2023-05-29T12:16:22;6.47;;;2.63;;
17201;SDS011;8717;53.588;10.176;2023-05-29T12:18:50;5.18;;;2.40;;
17201;SDS011;8717;53.588;10.176;2023-05-29T12:21:17;5.50;;;2.20;;
17201;SDS011;8717;53.588;10.176;2023-05-29T12:23:45;7.47;;;2.45;;
17201;SDS011;8717;53.588;10.176;2023-05-29T12:26:12;5.47;;;2.60;;
17201;SDS011;8717;53.588;10.176;2023-05-29T12:28:42;5.00;;;1.92;;
17201;SDS011;8717;53.588;10.176;2023-05-29T12:31:09;7.60;;;2.20;;
17201;SDS011;8717;53.588;10.176;2023-05-29T12:33:36;7.78;;;2.58;;
17201;SDS011;8717;53.588;10.176;2023-05-29T12:36:11;5.18;;;2.10;;
17201;SDS011;8717;53.588;10.176;2023-05-29T12:38:46;6.30;;;2.25;;
17201;SDS011;8717;53.588;10.176;2023-05-29T12:41:26;7.85;;;2.38;;
17201;SDS011;8717;53.588;10.176;2023-05-29T12:43:54;6.45;;;2.30;;
17201;SDS011;8717;53.588;10.176;2023-05-29T12:46:22;6.20;;;2.42;;
17201;SDS011;8717;53.588;10.176;2023-05-29T12:48:49;4.50;;;2.22;;
17201;SDS011;8717;53.588;10.176;2023-05-29T12:51:23;4.93;;;2.30;;
17201;SDS011;8717;53.588;10.176;2023-05-29T12:53:50;6.85;;;2.45;;
17201;SDS011;8717;53.588;10.176;2023-05-29T12:56:19;7.20;;;2.95;;
17201;SDS011;8717;53.588;10.176;2023-05-29T12:58:47;8.13;;;2.22;;
17201;SDS011;8717;53.588;10.176;2023-05-29T13:01:14;5.65;;;2.05;;
17201;SDS011;8717;53.588;10.176;2023-05-29T13:03:41;6.75;;;2.47;;
17201;SDS011;8717;53.588;10.176;2023-05-29T13:06:07;5.43;;;2.45;;
17201;SDS011;8717;53.588;10.176;2023-05-29T13:08:35;8.05;;;2.60;;
17201;SDS011;8717;53.588;10.176;2023-05-29T13:11:04;6.72;;;2.70;;
17201;SDS011;8717;53.588;10.176;2023-05-29T13:13:30;6.07;;;2.30;;
17201;SDS011;8717;53.588;10.176;2023-05-29T13:15:57;7.85;;;2.80;;
17201;SDS011;8717;53.588;10.176;2023-05-29T13:18:23;5.93;;;2.28;;
17201;SDS011;8717;53.588;10.176;2023-05-29T13:20:50;6.50;;;2.30;;
17201;SDS011;8717;53.588;10.176;2023-05-29T13:23:17;5.95;;;2.30;;
17201;SDS011;8717;53.588;10.176;2023-05-29T13:25:45;7.32;;;2.75;;
17201;SDS011;8717;53.588;10.176;2023-05-29T13:28:14;8.48;;;2.70;;
17201;SDS011;8717;53.588;10.176;2023-05-29T13:30:41;6.10;;;2.45;;
17201;SDS011;8717;53.588;10.176;2023-05-29T13:33:07;7.22;;;2.60;;
17201;SDS011;8717;53.588;10.176;2023-05-29T13:35:34;5.63;;;2.20;;
17201;SDS011;8717;53.588;10.176;2023-05-29T13:38:01;5.00;;;2.30;;
17201;SDS011;8717;53.588;10.176;2023-05-29T13:40:27;5.93;;;2.40;;
17201;SDS011;8717;53.588;10.176;2023-05-29T13:42:55;6.25;;;2.67;;
17201;SDS011;8717;53.588;10.176;2023-05-29T13:45:22;6.43;;;2.53;;
17201;SDS011;8717;53.588;10.176;2023-05-29T13:47:49;5.53;;;2.42;;
17201;SDS011;8717;53.588;10.176;2023-05-29T13:50:15;6.10;;;2.30;;
17201;SDS011;8717;53.588;10.176;2023-05-29T13:52:42;6.50;;;2.35;;
17201;SDS011;8717;53.588;10.176;2023-05-29T13:55:09;6.32;;;2.67;;
17201;SDS011;8717;53.588;10.176;2023-05-29T13:57:35;6.40;;;2.42;;
17201;SDS011;8717;53.588;10.176;2023-05-29T14:00:04;8.23;;;2.20;;
17201;SDS011;8717;53.588;10.176;2023-05-29T14:02:31;6.95;;;2.65;;
17201;SDS011;8717;53.588;10.176;2023-05-29T14:04:58;5.10;;;2.05;;
17201;SDS011;8717;53.588;10.176;2023-05-29T14:07:25;6.78;;;2.20;;
17201;SDS011;8717;53.588;10.176;2023-05-29T14:09:51;6.63;;;2.45;;
17201;SDS011;8717;53.588;10.176;2023-05-29T14:12:18;7.03;;;2.45;;
17201;SDS011;8717;53.588;10.176;2023-05-29T14:14:45;5.05;;;2.42;;
17201;SDS011;8717;53.588;10.176;2023-05-29T14:17:13;11.50;;;6.97;;
17201;SDS011;8717;53.588;10.176;2023-05-29T14:19:40;7.03;;;3.63;;
17201;SDS011;8717;53.588;10.176;2023-05-29T14:22:06;7.40;;;2.80;;
17201;SDS011;8717;53.588;10.176;2023-05-29T14:24:33;6.25;;;2.92;;
17201;SDS011;8717;53.588;10.176;2023-05-29T14:27:01;5.10;;;2.20;;
17201;SDS011;8717;53.588;10.176;2023-05-29T14:29:28;4.75;;;2.13;;
17201;SDS011;8717;53.588;10.176;2023-05-29T14:31:55;5.85;;;2.60;;
17201;SDS011;8717;53.588;10.176;2023-05-29T14:34:23;4.03;;;1.90;;
17201;SDS011;8717;53.588;10.176;2023-05-29T14:36:49;4.78;;;2.20;;
17201;SDS011;8717;53.588;10.176;2023-05-29T14:39:16;5.05;;;1.98;;
17201;SDS011;8717;53.588;10.176;2023-05-29T14:41:43;7.80;;;2.50;;
17201;SDS011;8717;53.588;10.176;2023-05-29T14:44:10;5.75;;;2.20;;
17201;SDS011;8717;53.588;10.176;2023-05-29T14:46:37;4.55;;;2.08;;
17201;SDS011;8717;53.588;10.176;2023-05-29T14:49:04;6.75;;;2.53;;
17201;SDS011;8717;53.588;10.176;2023-05-29T14:51:33;8.13;;;2.17;;